Terminal Aerodrome Forecast
Issued by NWS

Home | Current Version | Previous Version | Text Only | Print | Product List | Glossary Off
Versions: 1 2 3 4 5 6 7 8 9 10 11 12 13 14 15 16 17 18 19 20 21 22 23 24 25 26 27 28

590
FTUS43 KLOT 112311 AAC
TAFMDW
TAF AMD
KMDW 112311Z 1123/1224 35008KT 2SM -SN OVC030
      TEMPO 1123/1201 1/2SM SN OVC010
     FM120200 33018G30KT P6SM BKN030
     FM121300 32015G22KT P6SM SCT035 SCT250=

USA.gov is the U.S. government's official web portal to all federal, state and local government web resources and services.